sensor_id;sensor_type;location;lat;lon;timestamp;temperature;humidity
2653;DHT22;1336;48.692;9.144;2023-05-07T05:00:10;14.60;97.20
2653;DHT22;1336;48.692;9.144;2023-05-07T05:01:04;14.60;97.20
2653;DHT22;1336;48.692;9.144;2023-05-07T05:01:55;14.60;97.20
2653;DHT22;1336;48.692;9.144;2023-05-07T05:02:48;14.70;97.20
2653;DHT22;1336;48.692;9.144;2023-05-07T05:03:38;14.70;97.20
2653;DHT22;1336;48.692;9.144;2023-05-07T05:04:31;14.70;97.20
2653;DHT22;1336;48.692;9.144;2023-05-07T05:05:22;14.70;97.20
2653;DHT22;1336;48.692;9.144;2023-05-07T05:06:13;14.70;97.20
2653;DHT22;1336;48.692;9.144;2023-05-07T05:07:04;14.80;97.20
2653;DHT22;1336;48.692;9.144;2023-05-07T05:07:56;14.80;97.20
2653;DHT22;1336;48.692;9.144;2023-05-07T05:08:47;14.80;97.20
2653;DHT22;1336;48.692;9.144;2023-05-07T05:09:38;14.90;97.20
2653;DHT22;1336;48.692;9.144;2023-05-07T05:10:29;14.90;97.20
2653;DHT22;1336;48.692;9.144;2023-05-07T05:11:21;14.90;97.20
2653;DHT22;1336;48.692;9.144;2023-05-07T05:12:11;14.90;97.20
2653;DHT22;1336;48.692;9.144;2023-05-07T05:13:03;15.00;97.20
2653;DHT22;1336;48.692;9.144;2023-05-07T05:13:54;15.00;97.20
2653;DHT22;1336;48.692;9.144;2023-05-07T05:14:46;15.00;97.20
2653;DHT22;1336;48.692;9.144;2023-05-07T05:15:38;15.10;97.20
2653;DHT22;1336;48.692;9.144;2023-05-07T05:16:28;15.10;97.20
2653;DHT22;1336;48.692;9.144;2023-05-07T05:17:20;15.10;97.20
2653;DHT22;1336;48.692;9.144;2023-05-07T05:18:11;15.20;97.20
2653;DHT22;1336;48.692;9.144;2023-05-07T05:19:03;15.20;97.20
2653;DHT22;1336;48.692;9.144;2023-05-07T05:19:53;15.30;97.20
2653;DHT22;1336;48.692;9.144;2023-05-07T05:20:45;15.30;97.20
2653;DHT22;1336;48.692;9.144;2023-05-07T05:21:36;15.30;97.20
2653;DHT22;1336;48.692;9.144;2023-05-07T05:22:27;15.40;97.20
2653;DHT22;1336;48.692;9.144;2023-05-07T05:23:21;15.50;97.20
2653;DHT22;1336;48.692;9.144;2023-05-07T05:24:13;15.50;97.20
2653;DHT22;1336;48.692;9.144;2023-05-07T05:25:04;15.60;97.20
2653;DHT22;1336;48.692;9.144;2023-05-07T05:25:56;15.60;97.20
2653;DHT22;1336;48.692;9.144;2023-05-07T05:26:48;15.70;97.20
2653;DHT22;1336;48.692;9.144;2023-05-07T05:27:39;15.70;97.20
2653;DHT22;1336;48.692;9.144;2023-05-07T05:28:30;15.80;97.20
2653;DHT22;1336;48.692;9.144;2023-05-07T05:29:22;15.80;97.20
2653;DHT22;1336;48.692;9.144;2023-05-07T05:30:13;15.90;97.20
2653;DHT22;1336;48.692;9.144;2023-05-07T05:31:06;15.90;97.20
2653;DHT22;1336;48.692;9.144;2023-05-07T05:31:57;16.00;97.20
2653;DHT22;1336;48.692;9.144;2023-05-07T05:32:49;16.00;97.20
2653;DHT22;1336;48.692;9.144;2023-05-07T05:33:39;16.10;97.20
2653;DHT22;1336;48.692;9.144;2023-05-07T05:34:31;16.10;97.20
2653;DHT22;1336;48.692;9.144;2023-05-07T05:35:23;16.10;97.20
2653;DHT22;1336;48.692;9.144;2023-05-07T05:36:15;16.10;97.20
2653;DHT22;1336;48.692;9.144;2023-05-07T05:37:06;16.10;97.20
2653;DHT22;1336;48.692;9.144;2023-05-07T05:37:57;16.20;97.20
2653;DHT22;1336;48.692;9.144;2023-05-07T05:38:48;16.20;97.20
2653;DHT22;1336;48.692;9.144;2023-05-07T05:39:40;16.30;97.20
2653;DHT22;1336;48.692;9.144;2023-05-07T05:40:31;16.30;97.20
2653;DHT22;1336;48.692;9.144;2023-05-07T05:41:23;16.30;97.20
2653;DHT22;1336;48.692;9.144;2023-05-07T05:42:14;16.40;97.20
2653;DHT22;1336;48.692;9.144;2023-05-07T05:43:06;16.50;97.20
2653;DHT22;1336;48.692;9.144;2023-05-07T05:43:56;16.50;97.20
2653;DHT22;1336;48.692;9.144;2023-05-07T05:44:48;16.50;97.20
2653;DHT22;1336;48.692;9.144;2023-05-07T05:45:39;16.50;97.20
2653;DHT22;1336;48.692;9.144;2023-05-07T05:46:32;16.60;97.20
2653;DHT22;1336;48.692;9.144;2023-05-07T05:47:23;16.60;97.20
2653;DHT22;1336;48.692;9.144;2023-05-07T05:48:14;16.60;97.20
2653;DHT22;1336;48.692;9.144;2023-05-07T05:49:05;16.70;97.20
2653;DHT22;1336;48.692;9.144;2023-05-07T05:49:57;16.70;97.20
2653;DHT22;1336;48.692;9.144;2023-05-07T05:50:48;16.70;97.20
2653;DHT22;1336;48.692;9.144;2023-05-07T05:51:39;16.80;97.20
2653;DHT22;1336;48.692;9.144;2023-05-07T05:52:30;16.80;97.20
2653;DHT22;1336;48.692;9.144;2023-05-07T05:53:22;16.80;97.20
2653;DHT22;1336;48.692;9.144;2023-05-07T05:54:13;16.80;97.20
2653;DHT22;1336;48.692;9.144;2023-05-07T05:55:06;16.90;97.20
2653;DHT22;1336;48.692;9.144;2023-05-07T05:55:57;16.90;97.20
2653;DHT22;1336;48.692;9.144;2023-05-07T05:56:49;16.90;97.20
2653;DHT22;1336;48.692;9.144;2023-05-07T05:57:39;16.90;97.20
2653;DHT22;1336;48.692;9.144;2023-05-07T05:58:31;17.00;97.20
2653;DHT22;1336;48.692;9.144;2023-05-07T05:59:22;17.00;97.20
2653;DHT22;1336;48.692;9.144;2023-05-07T06:00:14;17.10;97.20
2653;DHT22;1336;48.692;9.144;2023-05-07T06:01:06;17.10;97.20
2653;DHT22;1336;48.692;9.144;2023-05-07T06:01:59;17.20;97.20
2653;DHT22;1336;48.692;9.144;2023-05-07T06:02:50;17.20;97.20
2653;DHT22;1336;48.692;9.144;2023-05-07T06:03:42;17.20;97.20
2653;DHT22;1336;48.692;9.144;2023-05-07T06:04:32;17.30;97.20
2653;DHT22;1336;48.692;9.144;2023-05-07T06:05:24;17.30;97.20
2653;DHT22;1336;48.692;9.144;2023-05-07T06:06:15;17.30;97.20
2653;DHT22;1336;48.692;9.144;2023-05-07T06:07:07;17.30;97.20
2653;DHT22;1336;48.692;9.144;2023-05-07T06:07:57;17.30;97.20
2653;DHT22;1336;48.692;9.144;2023-05-07T06:08:49;17.30;97.20
2653;DHT22;1336;48.692;9.144;2023-05-07T06:09:40;17.40;97.20
2653;DHT22;1336;48.692;9.144;2023-05-07T06:10:32;17.40;97.20
2653;DHT22;1336;48.692;9.144;2023-05-07T06:11:22;17.50;97.20
2653;DHT22;1336;48.692;9.144;2023-05-07T06:12:14;17.50;97.20
2653;DHT22;1336;48.692;9.144;2023-05-07T06:13:05;17.60;97.20
2653;DHT22;1336;48.692;9.144;2023-05-07T06:13:57;17.60;97.20
2653;DHT22;1336;48.692;9.144;2023-05-07T06:14:47;17.60;97.20
2653;DHT22;1336;48.692;9.144;2023-05-07T06:15:39;17.70;97.20
2653;DHT22;1336;48.692;9.144;2023-05-07T06:16:30;17.70;97.20
2653;DHT22;1336;48.692;9.144;2023-05-07T06:17:23;17.80;97.20
2653;DHT22;1336;48.692;9.144;2023-05-07T06:18:14;17.80;97.20
2653;DHT22;1336;48.692;9.144;2023-05-07T06:19:05;17.90;97.20
2653;DHT22;1336;48.692;9.144;2023-05-07T06:19:56;17.90;97.20
2653;DHT22;1336;48.692;9.144;2023-05-07T06:20:48;18.00;97.20
2653;DHT22;1336;48.692;9.144;2023-05-07T06:21:39;18.00;97.20
2653;DHT22;1336;48.692;9.144;2023-05-07T06:22:31;18.10;97.20
2653;DHT22;1336;48.692;9.144;2023-05-07T06:23:22;18.10;97.20
2653;DHT22;1336;48.692;9.144;2023-05-07T06:24:13;18.10;97.20
2653;DHT22;1336;48.692;9.144;2023-05-07T06:25:05;18.20;97.20
2653;DHT22;1336;48.692;9.144;2023-05-07T06:25:57;18.30;97.20
2653;DHT22;1336;48.692;9.144;2023-05-07T06:26:48;18.30;97.20
2653;DHT22;1336;48.692;9.144;2023-05-07T06:27:39;18.30;97.20
2653;DHT22;1336;48.692;9.144;2023-05-07T06:28:30;18.40;97.20
2653;DHT22;1336;48.692;9.144;2023-05-07T06:29:26;18.50;97.20
2653;DHT22;1336;48.692;9.144;2023-05-07T06:30:16;18.50;97.20
2653;DHT22;1336;48.692;9.144;2023-05-07T06:31:13;18.60;97.20
2653;DHT22;1336;48.692;9.144;2023-05-07T06:32:07;18.70;97.20
2653;DHT22;1336;48.692;9.144;2023-05-07T06:33:00;18.80;97.20
2653;DHT22;1336;48.692;9.144;2023-05-07T06:33:51;18.80;97.20
2653;DHT22;1336;48.692;9.144;2023-05-07T06:34:42;18.90;97.20
2653;DHT22;1336;48.692;9.144;2023-05-07T06:35:33;18.90;97.20
2653;DHT22;1336;48.692;9.144;2023-05-07T06:36:25;19.00;97.20
2653;DHT22;1336;48.692;9.144;2023-05-07T06:37:16;19.00;97.20
2653;DHT22;1336;48.692;9.144;2023-05-07T06:38:08;19.10;97.20
2653;DHT22;1336;48.692;9.144;2023-05-07T06:38:59;19.10;97.20
2653;DHT22;1336;48.692;9.144;2023-05-07T06:39:50;19.20;97.20
2653;DHT22;1336;48.692;9.144;2023-05-07T06:40:41;19.20;97.20
2653;DHT22;1336;48.692;9.144;2023-05-07T06:41:33;19.30;97.20
2653;DHT22;1336;48.692;9.144;2023-05-07T06:42:24;19.30;97.20
2653;DHT22;1336;48.692;9.144;2023-05-07T06:43:16;19.30;97.20
2653;DHT22;1336;48.692;9.144;2023-05-07T06:44:07;19.40;97.20
2653;DHT22;1336;48.692;9.144;2023-05-07T06:44:59;19.40;97.20
2653;DHT22;1336;48.692;9.144;2023-05-07T06:45:50;19.50;97.20
2653;DHT22;1336;48.692;9.144;2023-05-07T06:46:41;19.50;97.20
2653;DHT22;1336;48.692;9.144;2023-05-07T06:47:32;19.50;97.20
2653;DHT22;1336;48.692;9.144;2023-05-07T06:48:25;19.50;97.20
2653;DHT22;1336;48.692;9.144;2023-05-07T06:49:16;19.50;97.20
2653;DHT22;1336;48.692;9.144;2023-05-07T06:50:08;19.50;97.20
2653;DHT22;1336;48.692;9.144;2023-05-07T06:51:00;19.60;97.20
2653;DHT22;1336;48.692;9.144;2023-05-07T06:51:51;19.60;97.20
2653;DHT22;1336;48.692;9.144;2023-05-07T06:52:42;19.60;97.20
2653;DHT22;1336;48.692;9.144;2023-05-07T06:53:35;19.70;97.20
2653;DHT22;1336;48.692;9.144;2023-05-07T06:54:26;19.70;97.20
2653;DHT22;1336;48.692;9.144;2023-05-07T06:55:17;19.80;97.20
2653;DHT22;1336;48.692;9.144;2023-05-07T06:56:09;19.80;97.20
2653;DHT22;1336;48.692;9.144;2023-05-07T06:57:01;19.80;97.20
2653;DHT22;1336;48.692;9.144;2023-05-07T06:57:52;19.80;97.20
2653;DHT22;1336;48.692;9.144;2023-05-07T06:58:43;19.90;97.20
2653;DHT22;1336;48.692;9.144;2023-05-07T06:59:34;19.90;97.20
2653;DHT22;1336;48.692;9.144;2023-05-07T07:00:26;19.90;97.20
2653;DHT22;1336;48.692;9.144;2023-05-07T07:01:16;19.90;97.20
2653;DHT22;1336;48.692;9.144;2023-05-07T07:02:08;19.90;97.20
2653;DHT22;1336;48.692;9.144;2023-05-07T07:02:59;20.00;97.20
2653;DHT22;1336;48.692;9.144;2023-05-07T07:03:52;20.00;97.20
2653;DHT22;1336;48.692;9.144;2023-05-07T07:04:43;20.10;97.20
2653;DHT22;1336;48.692;9.144;2023-05-07T07:05:35;20.10;97.20
2653;DHT22;1336;48.692;9.144;2023-05-07T07:06:26;20.20;97.20
2653;DHT22;1336;48.692;9.144;2023-05-07T07:07:18;20.20;97.20
2653;DHT22;1336;48.692;9.144;2023-05-07T07:08:09;20.20;97.20
2653;DHT22;1336;48.692;9.144;2023-05-07T07:09:01;20.30;97.20
2653;DHT22;1336;48.692;9.144;2023-05-07T07:09:51;20.30;97.20
2653;DHT22;1336;48.692;9.144;2023-05-07T07:10:43;20.40;97.20
2653;DHT22;1336;48.692;9.144;2023-05-07T07:11:34;20.40;97.20
2653;DHT22;1336;48.692;9.144;2023-05-07T07:12:26;20.50;97.20
2653;DHT22;1336;48.692;9.144;2023-05-07T07:13:16;20.50;97.20
2653;DHT22;1336;48.692;9.144;2023-05-07T07:14:09;20.60;97.20
2653;DHT22;1336;48.692;9.144;2023-05-07T07:15:00;20.60;97.20
2653;DHT22;1336;48.692;9.144;2023-05-07T07:15:52;20.70;97.20
2653;DHT22;1336;48.692;9.144;2023-05-07T07:16:43;20.70;97.20
2653;DHT22;1336;48.692;9.144;2023-05-07T07:17:37;20.80;97.20
2653;DHT22;1336;48.692;9.144;2023-05-07T07:18:27;20.80;97.20
2653;DHT22;1336;48.692;9.144;2023-05-07T07:19:20;20.80;97.20
2653;DHT22;1336;48.692;9.144;2023-05-07T07:20:11;20.80;97.20
2653;DHT22;1336;48.692;9.144;2023-05-07T07:21:03;20.80;97.20
2653;DHT22;1336;48.692;9.144;2023-05-07T07:21:54;20.80;97.20
2653;DHT22;1336;48.692;9.144;2023-05-07T07:22:46;20.80;97.20
2653;DHT22;1336;48.692;9.144;2023-05-07T07:23:36;20.90;97.20
2653;DHT22;1336;48.692;9.144;2023-05-07T07:24:28;20.90;97.20
2653;DHT22;1336;48.692;9.144;2023-05-07T07:25:19;21.00;97.20
2653;DHT22;1336;48.692;9.144;2023-05-07T07:26:10;21.10;97.20
2653;DHT22;1336;48.692;9.144;2023-05-07T07:27:01;21.20;97.20
2653;DHT22;1336;48.692;9.144;2023-05-07T07:27:53;21.30;97.20
2653;DHT22;1336;48.692;9.144;2023-05-07T07:28:44;21.40;97.20
2653;DHT22;1336;48.692;9.144;2023-05-07T07:29:36;21.50;97.20
2653;DHT22;1336;48.692;9.144;2023-05-07T07:30:27;21.60;97.20
2653;DHT22;1336;48.692;9.144;2023-05-07T07:31:19;21.60;97.20
2653;DHT22;1336;48.692;9.144;2023-05-07T07:32:10;21.70;97.20
2653;DHT22;1336;48.692;9.144;2023-05-07T07:33:01;21.70;97.20
2653;DHT22;1336;48.692;9.144;2023-05-07T07:33:53;21.70;97.20
2653;DHT22;1336;48.692;9.144;2023-05-07T07:34:46;21.70;97.20
2653;DHT22;1336;48.692;9.144;2023-05-07T07:35:37;21.80;97.20
2653;DHT22;1336;48.692;9.144;2023-05-07T07:36:28;21.80;97.20
2653;DHT22;1336;48.692;9.144;2023-05-07T07:37:20;21.90;97.20
2653;DHT22;1336;48.692;9.144;2023-05-07T07:38:12;21.90;97.20
2653;DHT22;1336;48.692;9.144;2023-05-07T07:39:03;22.00;97.20
2653;DHT22;1336;48.692;9.144;2023-05-07T07:39:55;22.10;97.20
2653;DHT22;1336;48.692;9.144;2023-05-07T07:40:47;22.20;97.20
2653;DHT22;1336;48.692;9.144;2023-05-07T07:41:39;22.30;97.20
2653;DHT22;1336;48.692;9.144;2023-05-07T07:42:30;22.30;97.20
2653;DHT22;1336;48.692;9.144;2023-05-07T07:43:21;22.40;97.20
2653;DHT22;1336;48.692;9.144;2023-05-07T07:44:12;22.50;97.20
2653;DHT22;1336;48.692;9.144;2023-05-07T07:45:05;22.50;97.20
2653;DHT22;1336;48.692;9.144;2023-05-07T07:45:56;22.50;97.20
2653;DHT22;1336;48.692;9.144;2023-05-07T07:46:48;22.60;97.20
2653;DHT22;1336;48.692;9.144;2023-05-07T07:47:39;22.60;97.20
2653;DHT22;1336;48.692;9.144;2023-05-07T07:48:30;22.60;97.20
2653;DHT22;1336;48.692;9.144;2023-05-07T07:49:21;22.60;97.20
2653;DHT22;1336;48.692;9.144;2023-05-07T07:50:14;22.60;97.20
2653;DHT22;1336;48.692;9.144;2023-05-07T07:51:05;22.60;97.20
2653;DHT22;1336;48.692;9.144;2023-05-07T07:51:57;22.70;97.20
2653;DHT22;1336;48.692;9.144;2023-05-07T07:52:49;22.70;97.20
2653;DHT22;1336;48.692;9.144;2023-05-07T07:53:41;22.70;97.20
2653;DHT22;1336;48.692;9.144;2023-05-07T07:54:32;22.70;97.20
2653;DHT22;1336;48.692;9.144;2023-05-07T07:55:24;22.70;97.20
2653;DHT22;1336;48.692;9.144;2023-05-07T07:56:15;22.60;97.20
2653;DHT22;1336;48.692;9.144;2023-05-07T07:57:06;22.60;97.20
2653;DHT22;1336;48.692;9.144;2023-05-07T07:57:57;22.60;97.20
2653;DHT22;1336;48.692;9.144;2023-05-07T07:58:49;22.60;97.20
2653;DHT22;1336;48.692;9.144;2023-05-07T07:59:40;22.60;97.20
2653;DHT22;1336;48.692;9.144;2023-05-07T08:00:33;22.60;97.20
2653;DHT22;1336;48.692;9.144;2023-05-07T08:01:24;22.60;97.20
2653;DHT22;1336;48.692;9.144;2023-05-07T08:02:16;22.70;97.20
2653;DHT22;1336;48.692;9.144;2023-05-07T08:03:09;22.80;97.20
2653;DHT22;1336;48.692;9.144;2023-05-07T08:04:01;22.80;97.20
2653;DHT22;1336;48.692;9.144;2023-05-07T08:04:53;22.80;97.20
2653;DHT22;1336;48.692;9.144;2023-05-07T08:05:47;22.70;97.20
2653;DHT22;1336;48.692;9.144;2023-05-07T08:06:40;22.70;97.20
2653;DHT22;1336;48.692;9.144;2023-05-07T08:07:31;22.60;97.20
2653;DHT22;1336;48.692;9.144;2023-05-07T08:08:22;22.60;97.20
2653;DHT22;1336;48.692;9.144;2023-05-07T08:09:14;22.70;97.20
2653;DHT22;1336;48.692;9.144;2023-05-07T08:10:05;22.70;97.20
2653;DHT22;1336;48.692;9.144;2023-05-07T08:10:57;22.80;97.20
2653;DHT22;1336;48.692;9.144;2023-05-07T08:11:48;22.80;97.20
2653;DHT22;1336;48.692;9.144;2023-05-07T08:12:40;22.90;97.20
2653;DHT22;1336;48.692;9.144;2023-05-07T08:13:30;22.90;97.20
2653;DHT22;1336;48.692;9.144;2023-05-07T08:14:22;23.00;97.20
2653;DHT22;1336;48.692;9.144;2023-05-07T08:15:13;23.00;97.20
2653;DHT22;1336;48.692;9.144;2023-05-07T08:16:05;23.10;97.20
2653;DHT22;1336;48.692;9.144;2023-05-07T08:16:56;23.20;97.20
2653;DHT22;1336;48.692;9.144;2023-05-07T08:17:47;23.20;97.20
2653;DHT22;1336;48.692;9.144;2023-05-07T08:18:38;23.30;97.20
2653;DHT22;1336;48.692;9.144;2023-05-07T08:19:30;23.30;97.20
2653;DHT22;1336;48.692;9.144;2023-05-07T08:20:21;23.40;97.20
2653;DHT22;1336;48.692;9.144;2023-05-07T08:21:14;23.50;97.20
2653;DHT22;1336;48.692;9.144;2023-05-07T08:22:05;23.50;97.20
2653;DHT22;1336;48.692;9.144;2023-05-07T08:22:57;23.60;97.20
2653;DHT22;1336;48.692;9.144;2023-05-07T08:23:47;23.70;97.20
2653;DHT22;1336;48.692;9.144;2023-05-07T08:24:40;23.70;97.20
2653;DHT22;1336;48.692;9.144;2023-05-07T08:25:30;23.70;97.20
2653;DHT22;1336;48.692;9.144;2023-05-07T08:26:24;23.80;97.20
2653;DHT22;1336;48.692;9.144;2023-05-07T08:27:14;23.90;97.20
2653;DHT22;1336;48.692;9.144;2023-05-07T08:28:06;24.00;97.20
2653;DHT22;1336;48.692;9.144;2023-05-07T08:28:57;24.10;97.20
2653;DHT22;1336;48.692;9.144;2023-05-07T08:29:48;24.20;97.20
2653;DHT22;1336;48.692;9.144;2023-05-07T08:30:40;24.30;97.20
2653;DHT22;1336;48.692;9.144;2023-05-07T08:31:32;24.40;97.20
2653;DHT22;1336;48.692;9.144;2023-05-07T08:32:23;24.50;97.20
2653;DHT22;1336;48.692;9.144;2023-05-07T08:33:14;24.70;97.20
2653;DHT22;1336;48.692;9.144;2023-05-07T08:34:05;24.80;97.20
2653;DHT22;1336;48.692;9.144;2023-05-07T08:34:58;24.90;97.20
2653;DHT22;1336;48.692;9.144;2023-05-07T08:35:48;24.90;97.20
2653;DHT22;1336;48.692;9.144;2023-05-07T08:36:41;24.90;97.20
2653;DHT22;1336;48.692;9.144;2023-05-07T08:37:32;24.90;97.20
2653;DHT22;1336;48.692;9.144;2023-05-07T08:38:24;24.80;97.20
2653;DHT22;1336;48.692;9.144;2023-05-07T08:39:15;24.80;97.20
2653;DHT22;1336;48.692;9.144;2023-05-07T08:40:08;24.70;97.20
2653;DHT22;1336;48.692;9.144;2023-05-07T08:40:58;24.70;97.20
2653;DHT22;1336;48.692;9.144;2023-05-07T08:41:52;24.70;97.20
2653;DHT22;1336;48.692;9.144;2023-05-07T08:42:48;24.70;97.20
2653;DHT22;1336;48.692;9.144;2023-05-07T08:43:41;24.80;97.20
2653;DHT22;1336;48.692;9.144;2023-05-07T08:44:33;25.00;97.20
2653;DHT22;1336;48.692;9.144;2023-05-07T08:45:26;25.10;97.20
2653;DHT22;1336;48.692;9.144;2023-05-07T08:46:19;25.10;97.20
2653;DHT22;1336;48.692;9.144;2023-05-07T08:47:11;25.10;97.20
2653;DHT22;1336;48.692;9.144;2023-05-07T08:48:03;25.10;97.20
2653;DHT22;1336;48.692;9.144;2023-05-07T08:48:56;25.10;97.20
2653;DHT22;1336;48.692;9.144;2023-05-07T08:49:47;25.20;97.20
2653;DHT22;1336;48.692;9.144;2023-05-07T08:50:40;25.20;97.20
2653;DHT22;1336;48.692;9.144;2023-05-07T08:51:30;25.20;97.20
2653;DHT22;1336;48.692;9.144;2023-05-07T08:52:24;25.20;97.20
2653;DHT22;1336;48.692;9.144;2023-05-07T08:53:16;25.10;97.20
2653;DHT22;1336;48.692;9.144;2023-05-07T08:54:09;25.10;97.20
2653;DHT22;1336;48.692;9.144;2023-05-07T08:55:02;25.10;97.20
2653;DHT22;1336;48.692;9.144;2023-05-07T08:55:55;25.10;97.20
2653;DHT22;1336;48.692;9.144;2023-05-07T08:56:46;25.10;97.20
2653;DHT22;1336;48.692;9.144;2023-05-07T08:57:37;25.20;97.20
2653;DHT22;1336;48.692;9.144;2023-05-07T08:58:28;25.20;97.20
2653;DHT22;1336;48.692;9.144;2023-05-07T08:59:20;25.30;97.20
2653;DHT22;1336;48.692;9.144;2023-05-07T09:00:12;25.40;97.20
2653;DHT22;1336;48.692;9.144;2023-05-07T09:01:08;25.40;97.20
2653;DHT22;1336;48.692;9.144;2023-05-07T09:02:00;25.50;97.20
2653;DHT22;1336;48.692;9.144;2023-05-07T09:02:52;25.50;97.20
2653;DHT22;1336;48.692;9.144;2023-05-07T09:03:44;25.60;97.20
2653;DHT22;1336;48.692;9.144;2023-05-07T09:04:37;25.70;97.20
2653;DHT22;1336;48.692;9.144;2023-05-07T09:05:28;25.70;97.20
2653;DHT22;1336;48.692;9.144;2023-05-07T09:06:19;25.70;97.20
2653;DHT22;1336;48.692;9.144;2023-05-07T09:07:10;25.80;97.20
2653;DHT22;1336;48.692;9.144;2023-05-07T09:08:04;25.80;97.20
2653;DHT22;1336;48.692;9.144;2023-05-07T09:08:55;25.90;97.20
2653;DHT22;1336;48.692;9.144;2023-05-07T09:09:48;25.90;97.20
2653;DHT22;1336;48.692;9.144;2023-05-07T09:10:39;26.00;97.20
2653;DHT22;1336;48.692;9.144;2023-05-07T09:11:31;26.00;97.20
2653;DHT22;1336;48.692;9.144;2023-05-07T09:12:22;26.00;97.20
2653;DHT22;1336;48.692;9.144;2023-05-07T09:13:13;26.10;97.20
2653;DHT22;1336;48.692;9.144;2023-05-07T09:14:04;26.10;97.20
2653;DHT22;1336;48.692;9.144;2023-05-07T09:14:56;26.10;97.20
2653;DHT22;1336;48.692;9.144;2023-05-07T09:15:47;26.00;97.20
2653;DHT22;1336;48.692;9.144;2023-05-07T09:16:39;26.10;97.20
2653;DHT22;1336;48.692;9.144;2023-05-07T09:17:30;26.10;97.20
2653;DHT22;1336;48.692;9.144;2023-05-07T09:18:23;26.20;97.20
2653;DHT22;1336;48.692;9.144;2023-05-07T09:19:14;26.30;97.20
2653;DHT22;1336;48.692;9.144;2023-05-07T09:20:07;26.30;97.20
2653;DHT22;1336;48.692;9.144;2023-05-07T09:20:57;26.30;97.20
2653;DHT22;1336;48.692;9.144;2023-05-07T09:21:49;26.40;97.20
2653;DHT22;1336;48.692;9.144;2023-05-07T09:22:40;26.50;97.20
2653;DHT22;1336;48.692;9.144;2023-05-07T09:23:33;26.50;97.20
2653;DHT22;1336;48.692;9.144;2023-05-07T09:24:24;26.60;97.20
2653;DHT22;1336;48.692;9.144;2023-05-07T09:25:27;26.60;97.20
2653;DHT22;1336;48.692;9.144;2023-05-07T09:26:21;26.70;97.20
2653;DHT22;1336;48.692;9.144;2023-05-07T09:27:12;26.70;97.20
2653;DHT22;1336;48.692;9.144;2023-05-07T09:28:04;26.70;97.20
2653;DHT22;1336;48.692;9.144;2023-05-07T09:28:57;26.80;97.20
2653;DHT22;1336;48.692;9.144;2023-05-07T09:29:48;26.90;97.20
2653;DHT22;1336;48.692;9.144;2023-05-07T09:30:40;27.00;97.20
2653;DHT22;1336;48.692;9.144;2023-05-07T09:31:30;27.10;97.20
2653;DHT22;1336;48.692;9.144;2023-05-07T09:32:22;27.20;97.20
2653;DHT22;1336;48.692;9.144;2023-05-07T09:33:13;27.20;97.20
2653;DHT22;1336;48.692;9.144;2023-05-07T09:34:05;27.20;97.20
2653;DHT22;1336;48.692;9.144;2023-05-07T09:34:55;27.30;97.20
2653;DHT22;1336;48.692;9.144;2023-05-07T09:35:51;27.30;97.20
2653;DHT22;1336;48.692;9.144;2023-05-07T09:36:41;27.40;97.20
2653;DHT22;1336;48.692;9.144;2023-05-07T09:37:33;27.40;97.20
2653;DHT22;1336;48.692;9.144;2023-05-07T09:38:25;27.50;97.20
2653;DHT22;1336;48.692;9.144;2023-05-07T09:39:20;27.60;97.20
2653;DHT22;1336;48.692;9.144;2023-05-07T09:40:20;27.60;97.20
2653;DHT22;1336;48.692;9.144;2023-05-07T09:41:13;27.70;97.20
2653;DHT22;1336;48.692;9.144;2023-05-07T09:42:04;27.70;97.20
2653;DHT22;1336;48.692;9.144;2023-05-07T09:42:56;27.70;97.20
2653;DHT22;1336;48.692;9.144;2023-05-07T09:43:58;27.70;97.20
2653;DHT22;1336;48.692;9.144;2023-05-07T09:44:50;27.60;97.20
2653;DHT22;1336;48.692;9.144;2023-05-07T09:45:41;27.50;97.20
2653;DHT22;1336;48.692;9.144;2023-05-07T09:46:36;27.50;97.20
2653;DHT22;1336;48.692;9.144;2023-05-07T09:47:32;27.60;97.20
2653;DHT22;1336;48.692;9.144;2023-05-07T09:48:29;27.70;97.20
2653;DHT22;1336;48.692;9.144;2023-05-07T09:49:22;27.80;97.20
2653;DHT22;1336;48.692;9.144;2023-05-07T09:50:16;27.90;97.20
2653;DHT22;1336;48.692;9.144;2023-05-07T09:51:15;28.10;97.20
2653;DHT22;1336;48.692;9.144;2023-05-07T09:52:07;28.20;97.20
2653;DHT22;1336;48.692;9.144;2023-05-07T09:53:00;28.40;97.20
2653;DHT22;1336;48.692;9.144;2023-05-07T09:53:53;28.60;97.20
2653;DHT22;1336;48.692;9.144;2023-05-07T09:54:47;28.70;97.20
2653;DHT22;1336;48.692;9.144;2023-05-07T09:55:40;28.90;97.20
2653;DHT22;1336;48.692;9.144;2023-05-07T09:56:31;29.10;97.20
2653;DHT22;1336;48.692;9.144;2023-05-07T09:57:23;29.20;97.20
2653;DHT22;1336;48.692;9.144;2023-05-07T09:58:16;29.30;97.20
2653;DHT22;1336;48.692;9.144;2023-05-07T09:59:11;29.40;97.20
2653;DHT22;1336;48.692;9.144;2023-05-07T10:00:03;29.50;97.20
2653;DHT22;1336;48.692;9.144;2023-05-07T10:00:56;29.40;97.20
2653;DHT22;1336;48.692;9.144;2023-05-07T10:01:48;29.30;97.20
2653;DHT22;1336;48.692;9.144;2023-05-07T10:02:40;29.20;97.20
2653;DHT22;1336;48.692;9.144;2023-05-07T10:03:37;29.20;97.20
2653;DHT22;1336;48.692;9.144;2023-05-07T10:04:31;29.20;97.20
2653;DHT22;1336;48.692;9.144;2023-05-07T10:05:24;29.20;97.20
2653;DHT22;1336;48.692;9.144;2023-05-07T10:06:15;29.10;97.20
2653;DHT22;1336;48.692;9.144;2023-05-07T10:07:08;29.00;97.20
2653;DHT22;1336;48.692;9.144;2023-05-07T10:08:01;29.00;97.20
2653;DHT22;1336;48.692;9.144;2023-05-07T10:08:53;29.00;97.20
2653;DHT22;1336;48.692;9.144;2023-05-07T10:09:46;29.00;97.20
2653;DHT22;1336;48.692;9.144;2023-05-07T10:10:38;29.00;97.20
2653;DHT22;1336;48.692;9.144;2023-05-07T10:11:28;29.00;97.20
2653;DHT22;1336;48.692;9.144;2023-05-07T10:12:21;29.00;97.20
2653;DHT22;1336;48.692;9.144;2023-05-07T10:13:12;29.00;97.20
2653;DHT22;1336;48.692;9.144;2023-05-07T10:14:04;29.00;97.20
2653;DHT22;1336;48.692;9.144;2023-05-07T10:14:56;29.10;97.20
2653;DHT22;1336;48.692;9.144;2023-05-07T10:15:48;29.10;97.20
2653;DHT22;1336;48.692;9.144;2023-05-07T10:16:40;29.20;97.20
2653;DHT22;1336;48.692;9.144;2023-05-07T10:17:32;29.20;97.20
2653;DHT22;1336;48.692;9.144;2023-05-07T10:18:24;29.10;97.20
2653;DHT22;1336;48.692;9.144;2023-05-07T10:19:20;29.10;97.20
2653;DHT22;1336;48.692;9.144;2023-05-07T10:20:11;29.10;97.20
2653;DHT22;1336;48.692;9.144;2023-05-07T10:21:08;29.10;97.20
2653;DHT22;1336;48.692;9.144;2023-05-07T10:22:04;29.10;97.20
2653;DHT22;1336;48.692;9.144;2023-05-07T10:22:57;29.10;97.20
2653;DHT22;1336;48.692;9.144;2023-05-07T10:23:50;29.20;97.20
2653;DHT22;1336;48.692;9.144;2023-05-07T10:24:46;29.30;97.20
2653;DHT22;1336;48.692;9.144;2023-05-07T10:25:39;29.40;97.20
2653;DHT22;1336;48.692;9.144;2023-05-07T10:26:33;29.40;97.20
2653;DHT22;1336;48.692;9.144;2023-05-07T10:27:25;29.40;97.20
2653;DHT22;1336;48.692;9.144;2023-05-07T10:28:17;29.40;97.20
2653;DHT22;1336;48.692;9.144;2023-05-07T10:29:14;29.30;97.20
2653;DHT22;1336;48.692;9.144;2023-05-07T10:30:12;29.10;97.20
2653;DHT22;1336;48.692;9.144;2023-05-07T10:31:20;29.00;97.20
2653;DHT22;1336;48.692;9.144;2023-05-07T10:32:30;29.00;97.20
2653;DHT22;1336;48.692;9.144;2023-05-07T10:33:26;29.00;97.20
2653;DHT22;1336;48.692;9.144;2023-05-07T10:34:23;29.00;97.20
2653;DHT22;1336;48.692;9.144;2023-05-07T10:35:18;28.90;97.20
2653;DHT22;1336;48.692;9.144;2023-05-07T10:36:10;28.90;97.20
2653;DHT22;1336;48.692;9.144;2023-05-07T10:37:03;28.90;97.20
2653;DHT22;1336;48.692;9.144;2023-05-07T10:37:54;29.00;97.20
2653;DHT22;1336;48.692;9.144;2023-05-07T10:38:46;29.10;97.20
2653;DHT22;1336;48.692;9.144;2023-05-07T10:39:37;29.30;97.20